createdAt,value
2019-05-28T00:02:19.390Z,8.83
2019-05-28T00:07:04.315Z,9.03
2019-05-28T00:11:48.988Z,9.07
2019-05-28T00:16:36.592Z,10.20
2019-05-28T00:21:21.295Z,9.17
2019-05-28T00:26:05.963Z,9.73
2019-05-28T00:30:50.638Z,11.03
2019-05-28T00:35:35.357Z,10.67
2019-05-28T00:40:20.136Z,11.50
2019-05-28T00:45:06.460Z,11.30
2019-05-28T00:49:51.082Z,12.27
2019-05-28T00:54:35.663Z,12.00
2019-05-28T00:59:21.041Z,10.90
2019-05-28T01:04:05.943Z,11.27
2019-05-28T01:08:51.297Z,11.53
2019-05-28T01:13:37.095Z,9.50
2019-05-28T01:18:21.781Z,10.97
2019-05-28T01:23:06.468Z,11.20
2019-05-28T01:27:51.302Z,10.33
2019-05-28T01:32:35.892Z,11.23
2019-05-28T01:37:20.552Z,11.07
2019-05-28T01:42:05.133Z,11.67
2019-05-28T01:46:49.841Z,11.13
2019-05-28T01:51:35.051Z,11.87
2019-05-28T01:56:21.482Z,10.53
2019-05-28T02:01:12.548Z,9.87
2019-05-28T02:05:52.774Z,9.70
2019-05-28T02:10:40.379Z,10.53
2019-05-28T02:15:25.960Z,10.03
2019-05-28T02:20:11.176Z,9.87
2019-05-28T02:24:55.758Z,9.70
2019-05-28T02:29:40.305Z,9.60
2019-05-28T02:34:26.824Z,10.47
2019-05-28T02:39:11.578Z,10.13
2019-05-28T02:43:56.186Z,10.87
2019-05-28T02:48:40.880Z,8.73
2019-05-28T02:53:26.141Z,9.77
2019-05-28T02:58:11.851Z,10.33
2019-05-28T03:02:58.257Z,10.47
2019-05-28T03:07:44.248Z,11.03
2019-05-28T03:12:28.964Z,10.27
2019-05-28T03:17:13.791Z,9.03
2019-05-28T03:22:01.333Z,9.30
2019-05-28T03:26:48.800Z,8.03
2019-05-28T03:31:33.769Z,7.27
2019-05-28T03:36:19.862Z,7.60
2019-05-28T03:41:04.587Z,8.33
2019-05-28T03:45:49.500Z,8.70
2019-05-28T03:50:34.203Z,9.23
2019-05-28T03:55:22.045Z,9.20
2019-05-28T04:00:06.877Z,10.10
2019-05-28T04:04:51.825Z,10.43
2019-05-28T04:09:37.100Z,10.33
2019-05-28T04:14:21.978Z,12.57
2019-05-28T04:19:06.940Z,12.37
2019-05-28T04:23:53.977Z,12.40
2019-05-28T04:28:40.982Z,12.47
2019-05-28T04:33:25.724Z,12.07
2019-05-28T04:38:10.285Z,12.00
2019-05-28T04:42:55.406Z,11.40
2019-05-28T04:47:44.815Z,11.37
2019-05-28T04:52:30.934Z,11.57
2019-05-28T04:57:25.209Z,12.20
2019-05-28T05:02:10.311Z,12.93
2019-05-28T05:06:58.683Z,12.87
2019-05-28T05:11:44.107Z,11.93
2019-05-28T05:16:29.632Z,11.97
2019-05-28T05:21:23.903Z,12.60
2019-05-28T05:26:08.926Z,11.70
2019-05-28T05:30:58.212Z,12.20
2019-05-28T05:35:43.174Z,11.40
2019-05-28T05:40:29.290Z,12.87
2019-05-28T05:45:14.354Z,11.77
2019-05-28T05:49:59.819Z,14.87
2019-05-28T05:54:44.402Z,13.40
2019-05-28T05:59:31.435Z,11.57
2019-05-28T06:04:16.255Z,12.37
2019-05-28T06:09:01.311Z,11.93
2019-05-28T06:13:46.416Z,12.87
2019-05-28T06:18:34.363Z,11.60
2019-05-28T06:23:20.437Z,8.80
2019-05-28T06:28:05.252Z,7.77
2019-05-28T06:32:49.842Z,7.67
2019-05-28T06:37:34.648Z,8.10
2019-05-28T06:42:22.402Z,7.73
2019-05-28T06:47:07.476Z,8.90
2019-05-28T06:51:52.667Z,10.07
2019-05-28T06:56:37.690Z,10.00
2019-05-28T07:01:28.389Z,10.97
2019-05-28T07:06:15.984Z,11.30
2019-05-28T07:11:01.267Z,9.00
2019-05-28T07:15:46.352Z,9.33
2019-05-28T07:20:33.903Z,10.17
2019-05-28T07:25:18.773Z,9.53
2019-05-28T07:30:03.725Z,10.10
2019-05-28T07:34:48.701Z,10.00
2019-05-28T07:39:36.285Z,8.90
2019-05-28T07:44:21.024Z,8.10
2019-05-28T07:49:05.791Z,7.97
2019-05-28T07:53:51.452Z,6.40
2019-05-28T07:58:36.078Z,6.63
2019-05-28T08:03:21.683Z,7.20
2019-05-28T08:08:08.715Z,5.87
2019-05-28T08:12:53.426Z,5.70
2019-05-28T08:17:39.058Z,5.20
2019-05-28T08:22:40.887Z,5.13
2019-05-28T08:27:11.333Z,5.20
2019-05-28T08:31:56.234Z,5.40
2019-05-28T08:36:43.939Z,4.70
2019-05-28T08:41:29.971Z,4.83
2019-05-28T08:46:15.117Z,4.70
2019-05-28T08:51:01.508Z,4.47
2019-05-28T08:55:46.631Z,4.63
2019-05-28T09:00:39.573Z,4.80
2019-05-28T09:05:26.668Z,5.33
2019-05-28T09:10:10.986Z,5.20
2019-05-28T09:14:56.897Z,5.00
2019-05-28T09:19:41.857Z,5.33
2019-05-28T09:24:27.914Z,5.63
2019-05-28T09:29:15.653Z,5.57
2019-05-28T09:34:03.225Z,5.57
2019-05-28T09:38:48.503Z,5.83
2019-05-28T09:43:33.276Z,5.67
2019-05-28T09:48:18.475Z,5.20
2019-05-28T09:53:03.403Z,5.57
2019-05-28T09:57:53.247Z,5.90
2019-05-28T10:02:38.132Z,5.97
2019-05-28T10:07:23.149Z,5.07
2019-05-28T10:12:07.966Z,5.20
2019-05-28T10:16:52.929Z,5.40
2019-05-28T10:21:37.533Z,5.40
2019-05-28T10:26:22.237Z,5.30
2019-05-28T10:31:07.984Z,4.30
2019-05-28T10:35:52.883Z,4.73
2019-05-28T10:40:40.561Z,5.30
2019-05-28T10:45:27.013Z,4.07
2019-05-28T10:50:11.822Z,3.70
2019-05-28T10:54:56.707Z,4.57
2019-05-28T10:59:43.243Z,3.77
2019-05-28T11:04:28.063Z,3.80
2019-05-28T11:09:12.762Z,3.93
2019-05-28T11:13:57.721Z,4.97
2019-05-28T11:18:42.448Z,4.83
2019-05-28T11:23:27.036Z,3.23
2019-05-28T11:28:14.763Z,3.30
2019-05-28T11:33:00.576Z,3.50
2019-05-28T11:37:45.358Z,3.03
2019-05-28T11:42:30.446Z,3.47
2019-05-28T11:47:15.063Z,3.47
2019-05-28T11:51:59.860Z,3.53
2019-05-28T11:56:47.746Z,3.80
2019-05-28T12:01:35.280Z,3.83
2019-05-28T12:06:19.409Z,3.73
2019-05-28T12:11:04.445Z,3.00
2019-05-28T12:15:49.235Z,3.70
2019-05-28T12:20:34.126Z,4.83
2019-05-28T12:25:20.914Z,3.77
2019-05-28T12:30:07.339Z,4.10
2019-05-28T12:34:52.162Z,4.50
2019-05-28T12:39:36.818Z,4.80
2019-05-28T12:44:21.625Z,4.70
2019-05-28T12:49:06.251Z,4.80
2019-05-28T12:53:51.699Z,4.77
2019-05-28T12:58:42.290Z,4.10
2019-05-28T13:03:23.372Z,4.70
2019-05-28T13:08:10.178Z,4.60
2019-05-28T13:12:55.161Z,4.50
2019-05-28T13:17:39.771Z,5.00
2019-05-28T13:22:37.409Z,4.77
2019-05-28T13:27:22.363Z,3.77
2019-05-28T13:32:08.698Z,5.03
2019-05-28T13:36:53.509Z,5.03
2019-05-28T13:41:38.689Z,5.27
2019-05-28T13:46:23.730Z,5.90
2019-05-28T13:51:08.557Z,5.60
2019-05-28T13:55:53.414Z,5.60
2019-05-28T14:00:38.436Z,5.20
2019-05-28T14:05:37.698Z,4.93
2019-05-28T14:10:23.130Z,5.77
2019-05-28T14:15:08.382Z,5.50
2019-05-28T14:19:53.043Z,6.63
2019-05-28T14:24:37.818Z,6.03
2019-05-28T14:29:25.787Z,5.30
2019-05-28T14:34:10.455Z,5.77
2019-05-28T14:39:03.058Z,6.50
2019-05-28T14:43:42.318Z,5.80
2019-05-28T14:48:27.349Z,5.00
2019-05-28T14:53:11.939Z,5.63
2019-05-28T14:57:56.771Z,6.33
2019-05-28T15:02:41.914Z,5.53
2019-05-28T15:07:27.234Z,6.30
2019-05-28T15:12:12.120Z,6.47
2019-05-28T15:16:56.994Z,6.27
2019-05-28T15:21:42.071Z,6.83
2019-05-28T15:26:27.026Z,7.27
2019-05-28T15:31:11.727Z,7.27
2019-05-28T15:35:57.293Z,7.43
2019-05-28T15:40:42.449Z,7.03
2019-05-28T15:45:27.747Z,6.93
2019-05-28T15:50:12.962Z,7.67
2019-05-28T15:54:58.475Z,8.30
2019-05-28T15:59:44.525Z,7.07
2019-05-28T16:04:29.739Z,7.13
2019-05-28T16:09:14.520Z,8.00
2019-05-28T16:13:59.788Z,7.17
2019-05-28T16:18:44.579Z,7.43
2019-05-28T16:23:29.786Z,7.83
2019-05-28T16:28:15.469Z,8.67
2019-05-28T16:37:50.785Z,7.33
2019-05-28T16:42:49.501Z,7.83
2019-05-28T16:47:34.444Z,9.50
2019-05-28T16:52:20.507Z,8.07
2019-05-28T16:57:05.513Z,8.07
2019-05-28T17:01:50.422Z,8.53
2019-05-28T17:06:38.130Z,9.23
2019-05-28T17:11:32.770Z,7.50
2019-05-28T17:16:17.914Z,8.47
2019-05-28T17:21:02.580Z,8.93
2019-05-28T17:25:47.933Z,8.87
2019-05-28T17:30:33.076Z,8.47
2019-05-28T17:35:18.162Z,8.67
2019-05-28T17:40:06.515Z,8.57
2019-05-28T17:44:51.799Z,8.37
2019-05-28T17:49:36.690Z,8.47
2019-05-28T17:54:22.217Z,8.43
2019-05-28T17:59:37.437Z,8.60
2019-05-28T18:04:35.154Z,9.60
2019-05-28T18:09:21.032Z,9.43
2019-05-28T18:14:06.245Z,8.67
2019-05-28T18:18:51.045Z,8.00
2019-05-28T18:23:36.222Z,8.50
2019-05-28T18:28:21.389Z,9.13
2019-05-28T18:33:23.343Z,9.03
2019-05-28T18:38:08.337Z,8.40
2019-05-28T18:44:03.898Z,8.87
2019-05-28T18:54:45.176Z,9.50
2019-05-28T18:59:38.337Z,8.63
2019-05-28T19:04:24.382Z,8.57
2019-05-28T19:09:11.961Z,8.67
2019-05-28T19:13:58.217Z,9.63
2019-05-28T19:18:46.017Z,9.37
2019-05-28T19:23:31.452Z,10.10
2019-05-28T19:29:04.889Z,9.83
2019-05-28T19:34:34.354Z,10.17
2019-05-28T19:39:27.199Z,10.07
2019-05-28T19:44:12.039Z,10.13
2019-05-28T19:48:57.104Z,10.17
2019-05-28T19:53:42.066Z,10.57
2019-05-28T19:58:27.065Z,9.70
2019-05-28T20:03:12.115Z,10.23
2019-05-28T20:07:58.105Z,10.40
2019-05-28T20:12:45.715Z,10.03
2019-05-28T20:17:33.770Z,10.33
2019-05-28T20:22:18.964Z,10.40
2019-05-28T20:27:04.169Z,9.57
2019-05-28T20:31:51.997Z,9.43
2019-05-28T20:36:37.161Z,9.60
2019-05-28T20:41:24.881Z,8.00
2019-05-28T20:46:10.653Z,7.60
2019-05-28T20:51:07.340Z,8.10
2019-05-28T20:55:42.753Z,7.53
2019-05-28T21:00:27.799Z,7.07
2019-05-28T21:05:12.759Z,7.10
2019-05-28T21:09:58.528Z,7.50
2019-05-28T21:14:46.359Z,8.47
2019-05-28T21:19:31.410Z,7.03
2019-05-28T21:24:16.471Z,8.40
2019-05-28T21:29:01.676Z,8.23
2019-05-28T21:33:47.062Z,7.90
2019-05-28T21:38:31.849Z,8.40
2019-05-28T21:43:16.691Z,8.13
2019-05-28T21:48:01.442Z,7.70
2019-05-28T21:52:46.342Z,8.10
2019-05-28T21:57:31.409Z,8.60
2019-05-28T22:02:16.249Z,8.70
2019-05-28T22:07:01.608Z,8.47
2019-05-28T22:11:46.354Z,7.80
2019-05-28T22:16:31.628Z,8.37
2019-05-28T22:21:16.426Z,8.73
2019-05-28T22:26:02.562Z,8.73
2019-05-28T22:30:47.607Z,8.33
2019-05-28T22:35:37.954Z,8.33
2019-05-28T22:40:22.915Z,7.13
2019-05-28T22:45:07.783Z,7.53
2019-05-28T22:49:52.976Z,6.70
2019-05-28T22:54:39.711Z,6.37
2019-05-28T22:59:24.686Z,6.67
2019-05-28T23:04:09.330Z,5.87
2019-05-28T23:08:54.408Z,5.70
2019-05-28T23:13:46.857Z,6.20
2019-05-28T23:18:25.817Z,6.63
2019-05-28T23:23:11.446Z,5.67
2019-05-28T23:27:56.110Z,6.00
2019-05-28T23:32:41.175Z,5.63
2019-05-28T23:37:26.160Z,5.73
2019-05-28T23:42:11.541Z,6.40
2019-05-28T23:46:56.310Z,6.83
2019-05-28T23:51:40.983Z,6.50
2019-05-28T23:56:25.691Z,7.67
